createdAt,value
2023-03-18T00:02:38.161Z,100469.63
2023-03-18T00:05:40.822Z,100464.19
2023-03-18T00:08:45.293Z,100461.28
2023-03-18T00:11:47.176Z,100460.34
2023-03-18T00:14:48.794Z,100462.03
2023-03-18T00:17:50.418Z,100467.25
2023-03-18T00:20:51.970Z,100461.81
2023-03-18T00:23:56.592Z,100462.53
2023-03-18T00:26:58.227Z,100449.22
2023-03-18T00:29:59.769Z,100456.28
2023-03-18T00:33:01.401Z,100445.63
2023-03-18T00:36:03.215Z,100443.91
2023-03-18T00:39:05.092Z,100450.09
2023-03-18T00:42:10.761Z,100457.34
2023-03-18T00:45:12.493Z,100466.19
2023-03-18T00:48:14.561Z,100468.84
2023-03-18T00:51:18.007Z,100468.84
2023-03-18T00:54:20.905Z,100467.00
2023-03-18T00:57:22.836Z,100475.84
2023-03-18T01:00:26.274Z,100474.19
2023-03-18T01:03:27.932Z,100475.13
2023-03-18T01:06:32.543Z,100477.78
2023-03-18T01:09:34.487Z,100471.72
2023-03-18T01:12:36.161Z,100476.19
2023-03-18T01:15:37.796Z,100469.06
2023-03-18T01:18:40.748Z,100476.31
2023-03-18T01:21:42.329Z,100470.13
2023-03-18T01:24:45.140Z,100463.09
2023-03-18T01:27:46.679Z,100466.84
2023-03-18T01:30:49.332Z,100465.16
2023-03-18T01:33:51.912Z,100467.81
2023-03-18T01:36:55.780Z,100468.03
2023-03-18T01:39:58.446Z,100469.94
2023-03-18T01:43:17.763Z,100479.81
2023-03-18T01:46:34.163Z,100473.75
2023-03-18T01:49:39.771Z,100483.66
2023-03-18T01:52:42.721Z,100473.88
2023-03-18T01:55:47.247Z,100484.63
2023-03-18T01:58:54.066Z,100477.63
2023-03-18T02:02:04.106Z,100478.56
2023-03-18T02:05:08.358Z,100477.81
2023-03-18T02:08:10.004Z,100480.69
2023-03-18T02:11:11.837Z,100472.84
2023-03-18T02:14:15.024Z,100466.78
2023-03-18T02:17:21.377Z,100465.91
2023-03-18T02:20:40.905Z,100457.22
2023-03-18T02:23:51.646Z,100459.88
2023-03-18T02:27:03.535Z,100449.31
2023-03-18T02:30:10.411Z,100436.97
2023-03-18T02:33:15.231Z,100462.88
2023-03-18T02:36:23.988Z,100455.81
2023-03-18T02:39:26.004Z,100456.78
2023-03-18T02:42:31.911Z,100454.34
2023-03-18T02:45:51.104Z,100459.91
2023-03-18T02:48:54.043Z,100465.31
2023-03-18T02:51:56.198Z,100466.28
2023-03-18T02:54:59.303Z,100458.31
2023-03-18T02:58:01.043Z,100465.63
2023-03-18T03:01:03.513Z,100475.34
2023-03-18T03:04:06.951Z,100468.41
2023-03-18T03:07:08.675Z,100470.34
2023-03-18T03:10:10.987Z,100481.94
2023-03-18T03:13:13.239Z,100483.84
2023-03-18T03:16:16.748Z,100485.66
2023-03-18T03:19:18.388Z,100482.13
2023-03-18T03:22:20.066Z,100482.13
2023-03-18T03:25:22.649Z,100483.13
2023-03-18T03:28:24.233Z,100479.59
2023-03-18T03:31:27.432Z,100488.44
2023-03-18T03:34:29.222Z,100494.63
2023-03-18T03:37:30.950Z,100498.09
2023-03-18T03:40:32.693Z,100490.13
2023-03-18T03:43:34.639Z,100498.00
2023-03-18T03:46:36.256Z,100508.53
2023-03-18T03:49:38.195Z,100506.63
2023-03-18T03:52:40.181Z,100498.53
2023-03-18T03:55:41.776Z,100496.72
2023-03-18T03:58:45.828Z,100507.25
2023-03-18T04:01:47.476Z,100506.28
2023-03-18T04:04:49.301Z,100519.50
2023-03-18T04:07:51.472Z,100518.66
2023-03-18T04:10:53.454Z,100523.09
2023-03-18T04:13:55.326Z,100519.59
2023-03-18T04:16:58.196Z,100516.84
2023-03-18T04:19:59.765Z,100513.19
2023-03-18T04:23:01.545Z,100519.38
2023-03-18T04:26:03.107Z,100524.69
2023-03-18T04:29:04.902Z,100525.69
2023-03-18T04:32:06.992Z,100524.81
2023-03-18T04:35:09.581Z,100531.94
2023-03-18T04:38:12.154Z,100528.44
2023-03-18T04:41:13.772Z,100525.75
2023-03-18T04:44:15.334Z,100527.56
2023-03-18T04:47:16.937Z,100526.84
2023-03-18T04:50:19.129Z,100533.97
2023-03-18T04:53:20.786Z,100542.91
2023-03-18T04:56:22.372Z,100551.84
2023-03-18T04:59:24.178Z,100551.97
2023-03-18T05:02:25.714Z,100552.91
2023-03-18T05:05:27.534Z,100554.75
2023-03-18T05:08:29.072Z,100556.53
2023-03-18T05:11:30.681Z,100564.63
2023-03-18T05:14:32.266Z,100563.88
2023-03-18T05:17:34.015Z,100555.03
2023-03-18T05:20:36.166Z,100556.88
2023-03-18T05:23:38.016Z,100559.53
2023-03-18T05:26:39.628Z,100556.88
2023-03-18T05:29:41.902Z,100555.16
2023-03-18T05:32:43.607Z,100552.63
2023-03-18T05:35:46.136Z,100550.91
2023-03-18T05:38:47.726Z,100559.00
2023-03-18T05:41:49.287Z,100560.88
2023-03-18T05:44:50.856Z,100561.94
2023-03-18T05:47:53.038Z,100564.72
2023-03-18T05:50:54.642Z,100566.53
2023-03-18T05:53:56.618Z,100573.66
2023-03-18T05:56:58.415Z,100579.81
2023-03-18T06:00:00.138Z,100586.13
2023-03-18T06:03:02.003Z,100590.47
2023-03-18T06:06:03.901Z,100588.66
2023-03-18T06:09:06.987Z,100593.97
2023-03-18T06:12:08.772Z,100581.41
2023-03-18T06:15:12.094Z,100583.13
2023-03-18T06:18:14.905Z,100589.19
2023-03-18T06:21:16.519Z,100582.06
2023-03-18T06:24:18.835Z,100588.25
2023-03-18T06:27:20.405Z,100592.59
2023-03-18T06:30:22.407Z,100607.63
2023-03-18T06:33:25.834Z,100614.53
2023-03-18T06:36:27.432Z,100609.09
2023-03-18T06:39:29.014Z,100613.47
2023-03-18T06:42:30.538Z,100613.47
2023-03-18T06:45:33.021Z,100609.84
2023-03-18T06:48:35.298Z,100625.72
2023-03-18T06:51:36.897Z,100631.78
2023-03-18T06:54:38.476Z,100634.31
2023-03-18T06:57:40.425Z,100636.91
2023-03-18T07:00:45.469Z,100648.38
2023-03-18T07:03:47.136Z,100651.03
2023-03-18T07:06:48.647Z,100654.47
2023-03-18T07:09:50.852Z,100650.50
2023-03-18T07:12:52.483Z,100649.69
2023-03-18T07:15:56.647Z,100648.72
2023-03-18T07:18:59.199Z,100665.41
2023-03-18T07:22:00.769Z,100664.59
2023-03-18T07:25:02.546Z,100679.59
2023-03-18T07:28:05.807Z,100680.56
2023-03-18T07:31:07.858Z,100679.59
2023-03-18T07:34:10.200Z,100692.81
2023-03-18T07:37:11.909Z,100681.31
2023-03-18T07:40:14.758Z,100688.44
2023-03-18T07:43:17.401Z,100695.47
2023-03-18T07:46:19.160Z,100707.78
2023-03-18T07:49:20.718Z,100706.13
2023-03-18T07:52:22.289Z,100720.16
2023-03-18T07:55:24.443Z,100715.69
2023-03-18T07:58:26.684Z,100715.69
2023-03-18T08:01:28.876Z,100714.72
2023-03-18T08:04:31.849Z,100724.44
2023-03-18T08:07:34.799Z,100729.75
2023-03-18T08:10:36.711Z,100731.34
2023-03-18T08:13:39.530Z,100734.75
2023-03-18T08:16:41.830Z,100734.75
2023-03-18T08:19:43.914Z,100735.63
2023-03-18T08:22:46.092Z,100746.16
2023-03-18T08:25:49.966Z,100743.28
2023-03-18T08:28:51.670Z,100734.25
2023-03-18T08:31:54.273Z,100743.50
2023-03-18T08:34:56.741Z,100757.28
2023-03-18T08:37:58.326Z,100750.81
2023-03-18T08:40:59.928Z,100764.13
2023-03-18T08:44:02.828Z,100763.16
2023-03-18T08:47:04.552Z,100769.91
2023-03-18T08:50:06.530Z,100764.34
2023-03-18T08:53:09.390Z,100758.69
2023-03-18T08:56:13.023Z,100770.00
2023-03-18T08:59:14.702Z,100772.34
2023-03-18T09:02:19.318Z,100785.44
2023-03-18T09:05:21.561Z,100784.16
2023-03-18T09:08:23.803Z,100788.22
2023-03-18T09:11:25.456Z,100794.06
2023-03-18T09:14:27.646Z,100780.53
2023-03-18T09:17:46.975Z,100783.53
2023-03-18T09:20:51.382Z,100775.25
2023-03-18T09:23:53.015Z,100777.69
2023-03-18T09:26:54.719Z,100782.44
2023-03-18T09:29:56.811Z,100770.41
2023-03-18T09:32:59.304Z,100778.75
2023-03-18T09:36:01.185Z,100784.63
2023-03-18T09:39:03.056Z,100793.06
2023-03-18T09:42:29.415Z,100786.78
2023-03-18T09:45:41.572Z,100786.97
2023-03-18T09:49:03.124Z,100801.44
2023-03-18T09:52:07.623Z,100800.63
2023-03-18T09:55:27.385Z,100795.28
2023-03-18T09:58:31.960Z,100792.88
2023-03-18T10:01:38.023Z,100802.72
2023-03-18T10:04:54.616Z,100803.34
2023-03-18T10:08:01.898Z,100805.75
2023-03-18T10:11:08.232Z,100807.81
2023-03-18T10:14:27.820Z,100802.97
2023-03-18T10:17:35.559Z,100796.09
2023-03-18T10:20:59.387Z,100798.72
2023-03-18T10:24:20.370Z,100807.66
2023-03-18T10:27:33.639Z,100808.91
2023-03-18T10:31:00.794Z,100824.69
2023-03-18T10:34:08.454Z,100827.66
2023-03-18T10:37:36.304Z,100822.13
2023-03-18T10:40:41.354Z,100836.91
2023-03-18T10:43:45.893Z,100846.06
2023-03-18T10:46:49.802Z,100838.84
2023-03-18T10:50:10.933Z,100832.16
2023-03-18T10:53:27.274Z,100833.81
2023-03-18T10:56:29.344Z,100830.94
2023-03-18T10:59:31.166Z,100836.22
2023-03-18T11:02:37.223Z,100837.84
2023-03-18T11:05:39.007Z,100840.06
2023-03-18T11:08:41.004Z,100849.22
2023-03-18T11:11:44.867Z,100837.38
2023-03-18T11:14:48.730Z,100844.06
2023-03-18T11:17:51.863Z,100841.19
2023-03-18T11:21:03.630Z,100847.47
2023-03-18T11:24:20.890Z,100842.44
2023-03-18T11:27:26.506Z,100838.84
2023-03-18T11:30:39.116Z,100843.13
2023-03-18T11:33:40.920Z,100852.69
2023-03-18T11:36:42.562Z,100851.41
2023-03-18T11:39:44.596Z,100846.66
2023-03-18T11:42:48.667Z,100851.16
2023-03-18T11:45:59.089Z,100854.09
2023-03-18T11:49:00.654Z,100851.22
2023-03-18T11:52:26.907Z,100852.75
2023-03-18T11:55:50.846Z,100839.75
2023-03-18T11:59:17.824Z,100849.06
2023-03-18T12:02:28.716Z,100849.06
2023-03-18T12:06:13.424Z,100852.50
2023-03-18T12:09:22.769Z,100849.78
2023-03-18T12:12:34.380Z,100859.47
2023-03-18T12:15:55.503Z,100851.84
2023-03-18T12:19:14.256Z,100857.94
2023-03-18T12:22:16.174Z,100859.78
2023-03-18T12:25:30.538Z,100867.19
2023-03-18T12:28:48.356Z,100864.94
2023-03-18T12:32:17.273Z,100866.50
2023-03-18T12:35:20.690Z,100861.16
2023-03-18T12:38:45.069Z,100866.66
2023-03-18T12:42:02.100Z,100868.75
2023-03-18T12:45:13.076Z,100859.84
2023-03-18T12:48:30.746Z,100868.22
2023-03-18T12:52:04.288Z,100877.66
2023-03-18T12:55:29.393Z,100864.03
2023-03-18T12:58:37.718Z,100872.97
2023-03-18T13:01:53.374Z,100872.28
2023-03-18T13:04:59.717Z,100867.75
2023-03-18T13:08:06.639Z,100867.63
2023-03-18T13:11:51.757Z,100872.00
2023-03-18T13:15:14.197Z,100868.75
2023-03-18T13:18:29.724Z,100863.50
2023-03-18T13:21:35.558Z,100868.28
2023-03-18T13:24:49.008Z,100863.34
2023-03-18T13:28:28.194Z,100860.06
2023-03-18T13:31:44.960Z,100867.28
2023-03-18T13:35:26.618Z,100857.81
2023-03-18T13:38:50.958Z,100860.41
2023-03-18T13:42:26.672Z,100856.78
2023-03-18T13:45:32.673Z,100850.72
2023-03-18T13:48:35.877Z,100852.13
2023-03-18T13:51:37.427Z,100844.66
2023-03-18T13:54:42.095Z,100842.78
2023-03-18T13:58:16.506Z,100846.03
2023-03-18T14:01:24.478Z,100847.19
2023-03-18T14:04:46.277Z,100843.63
2023-03-18T14:07:49.598Z,100841.38
2023-03-18T14:11:16.900Z,100839.81
2023-03-18T14:14:47.472Z,100831.31
2023-03-18T14:17:58.584Z,100832.88
2023-03-18T14:21:02.731Z,100833.16
2023-03-18T14:24:20.717Z,100842.59
2023-03-18T14:27:22.688Z,100837.66
2023-03-18T14:30:30.004Z,100837.91
2023-03-18T14:33:34.085Z,100842.59
2023-03-18T14:36:44.649Z,100848.66
2023-03-18T14:39:51.526Z,100850.56
2023-03-18T14:42:58.882Z,100849.16
2023-03-18T14:46:04.816Z,100846.31
2023-03-18T14:49:28.715Z,100838.97
2023-03-18T14:52:35.561Z,100842.09
2023-03-18T14:55:38.140Z,100833.91
2023-03-18T14:58:46.187Z,100839.13
2023-03-18T15:01:50.740Z,100834.19
2023-03-18T15:04:55.358Z,100832.19
2023-03-18T15:07:56.896Z,100838.69
2023-03-18T15:10:59.295Z,100836.44
2023-03-18T15:14:01.367Z,100836.97
2023-03-18T15:17:12.483Z,100834.88
2023-03-18T15:20:14.394Z,100828.19
2023-03-18T15:23:17.851Z,100828.63
2023-03-18T15:26:34.579Z,100826.34
2023-03-18T15:29:43.998Z,100829.31
2023-03-18T15:32:49.795Z,100829.16
2023-03-18T15:35:56.889Z,100830.44
2023-03-18T15:38:58.468Z,100825.78
2023-03-18T15:42:02.719Z,100828.47
2023-03-18T15:45:05.351Z,100821.53
2023-03-18T15:48:15.635Z,100821.69
2023-03-18T15:51:45.116Z,100812.78
2023-03-18T15:54:48.429Z,100822.22
2023-03-18T15:57:53.769Z,100820.09
2023-03-18T16:00:56.999Z,100823.22
2023-03-18T16:04:00.501Z,100821.91
2023-03-18T16:07:02.206Z,100814.28
2023-03-18T16:10:04.057Z,100821.59
2023-03-18T16:13:05.709Z,100824.69
2023-03-18T16:16:16.352Z,100828.63
2023-03-18T16:19:29.047Z,100832.56
2023-03-18T16:22:33.561Z,100830.25
2023-03-18T16:25:35.620Z,100826.16
2023-03-18T16:28:38.012Z,100827.41
2023-03-18T16:31:39.654Z,100833.91
2023-03-18T16:34:41.733Z,100829.91
2023-03-18T16:37:44.870Z,100843.84
2023-03-18T16:40:46.830Z,100843.69
2023-03-18T16:43:50.104Z,100848.00
2023-03-18T16:46:56.679Z,100855.84
2023-03-18T16:49:59.061Z,100852.94
2023-03-18T16:53:00.661Z,100856.31
2023-03-18T16:56:15.729Z,100863.03
2023-03-18T16:59:19.056Z,100857.47
2023-03-18T17:02:32.466Z,100857.16
2023-03-18T17:05:34.504Z,100868.34
2023-03-18T17:08:36.837Z,100861.78
2023-03-18T17:11:39.178Z,100870.31
2023-03-18T17:14:49.207Z,100868.28
2023-03-18T17:17:53.232Z,100872.59
2023-03-18T17:20:54.908Z,100872.25
2023-03-18T17:23:56.792Z,100872.97
2023-03-18T17:26:58.310Z,100871.91
2023-03-18T17:30:00.834Z,100874.97
2023-03-18T17:33:04.469Z,100877.16
2023-03-18T17:36:07.639Z,100876.56
2023-03-18T17:39:09.976Z,100883.72
2023-03-18T17:42:32.977Z,100879.22
2023-03-18T17:45:35.683Z,100878.22
2023-03-18T17:48:38.480Z,100886.00
2023-03-18T17:51:40.098Z,100885.38
2023-03-18T17:54:41.648Z,100885.47
2023-03-18T17:57:44.191Z,100887.75
2023-03-18T18:00:47.093Z,100888.34
2023-03-18T18:03:48.996Z,100884.19
2023-03-18T18:06:50.617Z,100890.72
2023-03-18T18:09:52.834Z,100889.38
2023-03-18T18:12:54.361Z,100892.53
2023-03-18T18:15:55.953Z,100903.75
2023-03-18T18:18:57.676Z,100896.19
2023-03-18T18:22:03.131Z,100904.53
2023-03-18T18:25:06.308Z,100908.50
2023-03-18T18:28:19.702Z,100906.06
2023-03-18T18:31:24.195Z,100908.97
2023-03-18T18:34:25.785Z,100911.75
2023-03-18T18:37:27.495Z,100910.16
2023-03-18T18:40:29.014Z,100910.38
2023-03-18T18:43:30.828Z,100903.56
2023-03-18T18:46:34.166Z,100907.53
2023-03-18T18:49:35.826Z,100913.34
2023-03-18T18:52:37.451Z,100906.63
2023-03-18T18:55:39.305Z,100910.34
2023-03-18T18:58:42.139Z,100899.91
2023-03-18T19:01:43.724Z,100896.50
2023-03-18T19:04:45.266Z,100899.63
2023-03-18T19:07:46.846Z,100906.25
2023-03-18T19:10:49.541Z,100897.72
2023-03-18T19:13:51.374Z,100894.41
2023-03-18T19:16:54.675Z,100893.88
2023-03-18T19:19:56.263Z,100899.75
2023-03-18T19:22:57.885Z,100895.72
2023-03-18T19:26:00.463Z,100900.22
2023-03-18T19:29:02.031Z,100896.81
2023-03-18T19:32:03.632Z,100892.50
2023-03-18T19:35:05.717Z,100894.19
2023-03-18T19:38:09.305Z,100887.25
2023-03-18T19:41:11.362Z,100893.66
2023-03-18T19:44:21.657Z,100895.72
2023-03-18T19:47:25.171Z,100887.06
2023-03-18T19:50:27.331Z,100889.84
2023-03-18T19:53:29.138Z,100906.66
2023-03-18T19:56:31.625Z,100910.09
2023-03-18T19:59:39.268Z,100908.28
2023-03-18T20:02:41.303Z,100923.31
2023-03-18T20:05:42.844Z,100919.47
2023-03-18T20:08:44.554Z,100920.25
2023-03-18T20:11:48.088Z,100920.13
2023-03-18T20:14:49.845Z,100930.69
2023-03-18T20:17:52.603Z,100927.06
2023-03-18T20:20:54.270Z,100930.50
2023-03-18T20:24:01.657Z,100938.28
2023-03-18T20:27:05.493Z,100939.97
2023-03-18T20:30:26.240Z,100939.78
2023-03-18T20:33:27.942Z,100939.56
2023-03-18T20:36:29.478Z,100936.78
2023-03-18T20:39:31.185Z,100947.34
2023-03-18T20:42:33.188Z,100938.38
2023-03-18T20:45:35.187Z,100941.81
2023-03-18T20:48:38.144Z,100948.22
2023-03-18T20:51:41.360Z,100958.38
2023-03-18T20:54:42.934Z,100957.38
2023-03-18T20:57:44.475Z,100957.88
2023-03-18T21:00:47.111Z,100952.47
2023-03-18T21:03:49.029Z,100958.53
2023-03-18T21:06:50.672Z,100956.81
2023-03-18T21:09:52.564Z,100963.00
2023-03-18T21:12:54.440Z,100955.13
2023-03-18T21:15:57.934Z,100951.72
2023-03-18T21:19:00.117Z,100949.25
2023-03-18T21:22:01.705Z,100953.00
2023-03-18T21:25:03.426Z,100943.41
2023-03-18T21:28:05.232Z,100947.03
2023-03-18T21:31:36.009Z,100945.34
2023-03-18T21:34:37.633Z,100946.41
2023-03-18T21:37:39.194Z,100944.81
2023-03-18T21:40:40.792Z,100945.91
2023-03-18T21:43:42.398Z,100951.44
2023-03-18T21:46:44.121Z,100950.28
2023-03-18T21:49:46.949Z,100961.41
2023-03-18T21:52:48.707Z,100954.56
2023-03-18T21:55:51.749Z,100953.31
2023-03-18T21:58:53.675Z,100957.38
2023-03-18T22:01:55.377Z,100952.50
2023-03-18T22:04:59.330Z,100950.25
2023-03-18T22:08:00.926Z,100943.84
2023-03-18T22:11:02.497Z,100947.97
2023-03-18T22:14:04.167Z,100946.78
2023-03-18T22:17:19.834Z,100945.72
2023-03-18T22:20:22.425Z,100942.19
2023-03-18T22:23:27.699Z,100944.81
2023-03-18T22:26:29.244Z,100942.25
2023-03-18T22:29:31.137Z,100943.75
2023-03-18T22:32:47.257Z,100936.88
2023-03-18T22:35:48.933Z,100934.16
2023-03-18T22:38:50.961Z,100936.06
2023-03-18T22:41:52.593Z,100935.38
2023-03-18T22:44:54.170Z,100933.75
2023-03-18T22:47:59.044Z,100931.88
2023-03-18T22:51:01.759Z,100933.41
2023-03-18T22:54:04.254Z,100934.03
2023-03-18T22:57:05.879Z,100932.91
2023-03-18T23:00:16.952Z,100932.72
2023-03-18T23:03:22.152Z,100940.53
2023-03-18T23:06:24.053Z,100931.50
2023-03-18T23:09:25.828Z,100929.72
2023-03-18T23:12:30.375Z,100926.78
2023-03-18T23:15:32.277Z,100926.41
2023-03-18T23:18:35.003Z,100928.69
2023-03-18T23:21:36.648Z,100925.56
2023-03-18T23:24:38.444Z,100920.69
2023-03-18T23:27:40.140Z,100917.66
2023-03-18T23:30:43.629Z,100919.97
2023-03-18T23:33:45.610Z,100920.50
2023-03-18T23:36:47.391Z,100920.13
2023-03-18T23:39:49.095Z,100924.09
2023-03-18T23:42:50.679Z,100920.16
2023-03-18T23:45:52.361Z,100919.88
2023-03-18T23:48:53.997Z,100922.09
2023-03-18T23:51:55.592Z,100912.09
2023-03-18T23:54:57.136Z,100914.53
2023-03-18T23:57:58.761Z,100913.66
